createdAt,value
2018-07-11T00:01:55.874Z,57.59
2018-07-11T00:04:34.733Z,58.00
2018-07-11T00:07:03.317Z,58.23
2018-07-11T00:09:32.384Z,57.83
2018-07-11T00:12:00.992Z,58.42
2018-07-11T00:17:06.308Z,58.29
2018-07-11T00:19:35.812Z,57.81
2018-07-11T00:22:05.172Z,57.07
2018-07-11T00:24:34.115Z,57.49
2018-07-11T00:27:02.795Z,56.95
2018-07-11T00:29:31.728Z,57.05
2018-07-11T00:34:35.401Z,56.59
2018-07-11T00:37:04.067Z,57.27
2018-07-11T00:39:33.236Z,56.85
2018-07-11T00:42:06.832Z,56.64
2018-07-11T00:44:35.581Z,56.01
2018-07-11T00:47:10.529Z,56.52
2018-07-11T00:49:39.607Z,55.41
2018-07-11T00:52:13.225Z,56.04
2018-07-11T00:54:42.400Z,55.86
2018-07-11T00:57:11.058Z,55.17
2018-07-11T00:59:48.398Z,55.42
2018-07-11T01:02:17.287Z,55.29
2018-07-11T01:04:52.087Z,55.33
2018-07-11T01:07:20.699Z,55.97
2018-07-11T01:09:50.609Z,55.71
2018-07-11T01:12:19.835Z,56.58
2018-07-11T01:14:49.012Z,56.64
2018-07-11T01:17:22.842Z,56.45
2018-07-11T01:19:55.907Z,56.50
2018-07-11T01:22:24.839Z,56.03
2018-07-11T01:24:53.407Z,56.12
2018-07-11T01:27:21.924Z,56.28
2018-07-11T01:29:50.825Z,56.32
2018-07-11T01:32:19.416Z,57.52
2018-07-11T01:34:50.770Z,57.47
2018-07-11T01:37:22.693Z,57.83
2018-07-11T01:39:51.276Z,57.15
2018-07-11T01:42:26.475Z,57.14
2018-07-11T01:44:55.384Z,57.99
2018-07-11T01:47:24.528Z,57.17
2018-07-11T01:49:53.115Z,57.14
2018-07-11T01:52:32.932Z,56.67
2018-07-11T01:55:01.522Z,58.11
2018-07-11T01:57:30.683Z,57.69
2018-07-11T02:00:04.055Z,58.22
2018-07-11T02:02:32.680Z,58.22
2018-07-11T02:05:02.285Z,57.84
2018-07-11T02:07:30.891Z,58.51
2018-07-11T02:09:59.468Z,58.95
2018-07-11T02:12:29.193Z,58.62
2018-07-11T02:15:06.696Z,59.30
2018-07-11T02:17:37.222Z,59.60
2018-07-11T02:20:12.851Z,59.38
2018-07-11T02:22:45.545Z,59.64
2018-07-11T02:25:15.575Z,59.72
2018-07-11T02:27:46.296Z,59.36
2018-07-11T02:30:14.997Z,59.83
2018-07-11T02:32:48.428Z,59.85
2018-07-11T02:35:17.170Z,59.89
2018-07-11T02:37:45.731Z,59.69
2018-07-11T02:40:15.887Z,59.82
2018-07-11T02:42:44.513Z,59.77
2018-07-11T02:45:13.796Z,60.46
2018-07-11T02:47:43.733Z,59.81
2018-07-11T02:50:15.604Z,59.96
2018-07-11T02:52:50.007Z,59.57
2018-07-11T02:55:20.251Z,59.95
2018-07-11T02:57:49.265Z,60.55
2018-07-11T03:00:19.264Z,60.53
2018-07-11T03:02:47.881Z,60.90
2018-07-11T03:05:16.865Z,59.88
2018-07-11T03:07:48.457Z,59.84
2018-07-11T03:10:17.964Z,59.46
2018-07-11T03:12:53.231Z,59.78
2018-07-11T03:15:22.289Z,59.98
2018-07-11T03:17:50.862Z,59.58
2018-07-11T03:20:20.478Z,60.08
2018-07-11T03:25:22.735Z,60.21
2018-07-11T03:27:51.327Z,60.86
2018-07-11T03:31:11.744Z,60.96
2018-07-11T03:33:58.227Z,60.56
2018-07-11T03:36:27.268Z,61.21
2018-07-11T03:38:58.954Z,60.73
2018-07-11T03:41:28.332Z,61.88
2018-07-11T03:43:56.930Z,62.42
2018-07-11T03:46:25.546Z,61.39
2018-07-11T03:48:54.990Z,61.15
2018-07-11T03:51:36.017Z,62.04
2018-07-11T03:54:09.636Z,61.24
2018-07-11T03:56:38.259Z,60.66
2018-07-11T03:59:06.841Z,61.28
2018-07-11T04:01:47.140Z,61.34
2018-07-11T04:04:15.942Z,61.13
2018-07-11T04:06:44.549Z,61.59
2018-07-11T04:09:16.390Z,61.99
2018-07-11T04:11:44.906Z,60.75
2018-07-11T04:14:17.267Z,60.91
2018-07-11T04:16:46.216Z,61.04
2018-07-11T04:19:14.755Z,60.74
2018-07-11T04:21:43.296Z,60.65
2018-07-11T04:24:12.532Z,60.38
2018-07-11T04:26:41.181Z,60.96
2018-07-11T04:29:09.926Z,60.24
2018-07-11T04:31:39.173Z,59.98
2018-07-11T04:34:08.271Z,60.91
2018-07-11T04:36:36.939Z,60.80
2018-07-11T04:39:12.057Z,60.68
2018-07-11T04:41:41.514Z,60.09
2018-07-11T04:44:12.189Z,60.56
2018-07-11T04:46:41.388Z,60.76
2018-07-11T04:49:12.909Z,60.74
2018-07-11T04:51:48.058Z,60.32
2018-07-11T04:54:19.149Z,58.53
2018-07-11T04:56:53.656Z,57.94
2018-07-11T04:59:22.239Z,58.54
2018-07-11T05:01:54.739Z,57.10
2018-07-11T05:04:23.332Z,58.33
2018-07-11T05:06:51.986Z,58.43
2018-07-11T05:09:21.528Z,58.09
2018-07-11T05:11:54.710Z,58.84
2018-07-11T05:14:23.762Z,59.13
2018-07-11T05:16:52.435Z,59.08
2018-07-11T05:19:21.070Z,57.62
2018-07-11T05:21:49.749Z,58.49
2018-07-11T05:25:29.653Z,57.64
2018-07-11T05:27:59.017Z,57.43
2018-07-11T05:30:27.705Z,57.35
2018-07-11T05:32:56.323Z,57.50
2018-07-11T05:35:25.376Z,56.99
2018-07-11T05:37:54.010Z,57.17
2018-07-11T05:40:23.611Z,56.88
2018-07-11T05:42:52.590Z,56.80
2018-07-11T05:45:21.190Z,57.21
2018-07-11T05:47:49.943Z,57.28
2018-07-11T05:50:18.847Z,57.04
2018-07-11T05:52:47.516Z,56.94
2018-07-11T05:55:16.181Z,57.03
2018-07-11T05:57:46.066Z,57.02
2018-07-11T06:00:14.757Z,57.48
2018-07-11T06:02:44.430Z,56.84
2018-07-11T06:05:13.311Z,57.40
2018-07-11T06:07:41.834Z,56.45
2018-07-11T06:10:12.493Z,56.47
2018-07-11T06:12:42.605Z,56.15
2018-07-11T06:15:16.883Z,56.39
2018-07-11T06:17:45.605Z,55.58
2018-07-11T06:20:14.191Z,54.46
2018-07-11T06:22:42.730Z,54.12
2018-07-11T06:25:22.383Z,54.30
2018-07-11T06:27:50.910Z,53.52
2018-07-11T06:30:19.467Z,53.78
2018-07-11T06:34:54.436Z,54.06
2018-07-11T06:37:27.548Z,53.37
2018-07-11T06:39:56.286Z,52.46
2018-07-11T06:42:25.203Z,52.43
2018-07-11T06:44:53.791Z,51.51
2018-07-11T06:47:22.885Z,51.21
2018-07-11T06:49:51.745Z,51.08
2018-07-11T06:52:20.279Z,51.65
2018-07-11T06:54:49.466Z,51.31
2018-07-11T06:57:18.317Z,52.01
2018-07-11T06:59:47.920Z,51.87
2018-07-11T07:02:16.501Z,51.91
2018-07-11T07:04:45.321Z,50.99
2018-07-11T07:07:13.889Z,51.85
2018-07-11T07:09:52.372Z,52.04
2018-07-11T07:14:55.600Z,52.01
2018-07-11T07:17:24.209Z,52.19
2018-07-11T07:19:53.023Z,52.93
2018-07-11T07:24:46.794Z,52.21
2018-07-11T07:27:16.124Z,53.09
2018-07-11T07:29:44.689Z,51.93
2018-07-11T07:32:18.148Z,50.96
2018-07-11T07:34:47.001Z,51.67
2018-07-11T07:37:15.605Z,51.73
2018-07-11T07:39:44.191Z,52.49
2018-07-11T07:42:13.273Z,51.78
2018-07-11T12:50:45.999Z,28.95
2018-07-11T12:53:18.183Z,29.36
2018-07-11T12:55:48.967Z,28.25
2018-07-11T12:58:19.050Z,28.04
2018-07-11T13:00:49.303Z,27.68
2018-07-11T13:03:18.093Z,26.84
2018-07-11T13:05:46.923Z,27.01
2018-07-11T13:08:28.545Z,26.34
2018-07-11T13:10:57.425Z,25.21
2018-07-11T13:13:27.626Z,25.76
2018-07-11T13:15:56.292Z,26.25
2018-07-11T13:18:24.825Z,26.03
2018-07-11T13:20:53.920Z,25.91
2018-07-11T13:23:22.493Z,27.10
2018-07-11T13:25:51.092Z,27.10
2018-07-11T13:28:20.079Z,27.94
2018-07-11T13:30:54.880Z,29.09
2018-07-11T13:33:23.898Z,29.24
2018-07-11T13:35:54.673Z,28.69
2018-07-11T13:38:23.220Z,28.24
2018-07-11T13:40:51.903Z,28.13
2018-07-11T13:43:20.717Z,29.17
2018-07-11T13:45:49.484Z,29.48
2018-07-11T13:48:18.071Z,30.92
2018-07-11T13:50:48.192Z,30.78
2018-07-11T13:53:16.813Z,31.75
2018-07-11T13:55:45.446Z,31.63
2018-07-11T13:58:14.629Z,32.27
2018-07-11T14:00:44.004Z,33.00
2018-07-11T14:03:12.681Z,34.32
2018-07-11T14:05:42.590Z,34.74
2018-07-11T14:08:16.159Z,34.45
2018-07-11T14:10:44.802Z,35.71
2018-07-11T14:13:13.735Z,35.24
2018-07-11T14:15:42.328Z,36.56
2018-07-11T14:18:15.820Z,36.40
2018-07-11T14:20:44.699Z,36.15
2018-07-11T14:23:13.256Z,36.87
2018-07-11T14:25:42.556Z,36.80
2018-07-11T14:28:11.622Z,37.59
2018-07-11T14:30:42.160Z,37.01
2018-07-11T14:33:10.935Z,37.92
2018-07-11T14:35:46.289Z,37.34
2018-07-11T14:38:14.895Z,38.09
2018-07-11T14:40:44.181Z,37.71
2018-07-11T14:43:18.299Z,38.67
2018-07-11T14:45:47.040Z,38.44
2018-07-11T14:48:16.299Z,37.78
2018-07-11T14:50:45.687Z,37.64
2018-07-11T14:53:14.474Z,38.01
2018-07-11T14:55:43.341Z,38.49
2018-07-11T14:58:12.324Z,37.17
2018-07-11T15:00:44.310Z,36.96
2018-07-11T15:03:12.924Z,37.64
2018-07-11T15:05:42.827Z,37.50
2018-07-11T15:08:12.271Z,36.74
2018-07-11T15:10:41.505Z,36.59
2018-07-11T15:13:10.402Z,36.95
2018-07-11T15:15:39.055Z,37.41
2018-07-11T15:18:07.600Z,36.86
2018-07-11T15:20:36.780Z,36.93
2018-07-11T15:23:05.416Z,37.92
2018-07-11T15:25:34.075Z,37.67
2018-07-11T15:28:04.667Z,37.06
2018-07-11T15:30:33.213Z,37.63
2018-07-11T15:33:01.792Z,37.11
2018-07-11T15:35:32.205Z,36.57
2018-07-11T15:38:01.334Z,37.32
2018-07-11T15:40:30.825Z,37.14
2018-07-11T15:43:00.207Z,36.66
2018-07-11T15:45:29.029Z,37.55
2018-07-11T15:47:57.717Z,37.58
2018-07-11T15:50:26.675Z,37.81
2018-07-11T15:52:55.785Z,38.15
2018-07-11T15:55:26.188Z,38.19
2018-07-11T15:57:56.959Z,38.62
2018-07-11T16:00:30.930Z,38.41
2018-07-11T16:03:04.187Z,38.61
2018-07-11T16:05:33.180Z,38.43
2018-07-11T16:08:05.627Z,38.83
2018-07-11T16:10:48.103Z,39.65
2018-07-11T16:13:23.302Z,38.85
2018-07-11T16:15:52.421Z,39.97
2018-07-11T16:18:21.091Z,40.35
2018-07-11T16:20:58.378Z,39.66
2018-07-11T16:23:27.489Z,39.71
2018-07-11T16:25:56.127Z,39.05
2018-07-11T16:28:24.844Z,39.44
2018-07-11T16:30:54.984Z,40.18
2018-07-11T16:33:23.739Z,39.62
2018-07-11T16:35:56.143Z,40.56
2018-07-11T16:38:25.139Z,39.79
2018-07-11T16:40:54.624Z,40.36
2018-07-11T16:43:23.258Z,39.78
2018-07-11T16:45:53.138Z,40.41
2018-07-11T16:48:24.227Z,39.78
2018-07-11T16:50:53.255Z,39.86
2018-07-11T16:53:22.303Z,39.38
2018-07-11T16:55:51.854Z,40.16
2018-07-11T16:58:26.157Z,39.30
2018-07-11T17:00:55.523Z,39.22
2018-07-11T17:03:25.748Z,39.56
2018-07-11T17:06:09.692Z,39.42
2018-07-11T17:08:43.910Z,38.16
2018-07-11T17:11:22.502Z,37.59
2018-07-11T17:14:00.050Z,36.76
2018-07-11T17:16:50.414Z,34.69
2018-07-11T17:19:27.769Z,34.65
2018-07-11T17:21:56.741Z,33.81
2018-07-11T17:24:25.401Z,33.43
2018-07-11T17:26:56.574Z,33.09
2018-07-11T17:29:33.947Z,32.49
2018-07-11T17:32:07.161Z,32.83
2018-07-11T17:34:47.579Z,33.23
2018-07-11T17:37:19.617Z,33.27
2018-07-11T17:39:53.655Z,34.41
2018-07-11T17:42:25.457Z,35.02
2018-07-11T17:45:06.444Z,34.19
2018-07-11T17:47:50.390Z,34.89
2018-07-11T17:50:19.355Z,35.30
2018-07-11T17:53:00.691Z,36.20
2018-07-11T17:55:35.389Z,36.65
2018-07-11T17:58:10.826Z,37.55
2018-07-11T18:00:59.383Z,37.74
2018-07-11T18:03:53.014Z,38.60
2018-07-11T18:07:29.760Z,38.10
2018-07-11T18:10:07.821Z,39.14
2018-07-11T18:12:51.428Z,39.11
2018-07-11T18:15:31.356Z,38.83
2018-07-11T18:18:19.757Z,38.80
2018-07-11T18:21:39.799Z,39.37
2018-07-11T18:26:22.200Z,40.58
2018-07-11T18:29:25.686Z,40.29
2018-07-11T18:36:30.101Z,40.86
2018-07-11T18:39:18.350Z,41.55
2018-07-11T18:43:00.785Z,41.92
2018-07-11T18:45:39.333Z,41.50
2018-07-11T18:48:18.689Z,41.26
2018-07-11T18:51:00.400Z,41.98
2018-07-11T18:54:20.784Z,41.50
2018-07-11T18:57:10.612Z,41.72
2018-07-11T19:00:06.035Z,42.25
2018-07-11T19:03:16.639Z,41.61
2018-07-11T19:07:55.868Z,42.00
2018-07-11T19:11:02.351Z,41.73
2018-07-11T19:13:38.860Z,42.08
2018-07-11T19:17:50.780Z,43.18
2018-07-11T19:23:35.008Z,43.28
2018-07-11T19:31:03.589Z,43.62
2018-07-11T19:33:43.807Z,43.48
2018-07-11T19:36:23.658Z,44.36
2018-07-11T19:39:01.324Z,44.35
2018-07-11T19:43:44.232Z,45.18
2018-07-11T19:46:54.243Z,45.68
2018-07-11T19:51:39.807Z,46.18
2018-07-11T19:56:27.541Z,46.49
2018-07-11T19:58:56.181Z,46.37
2018-07-11T20:01:28.365Z,46.34
2018-07-11T20:03:57.295Z,46.40
2018-07-11T20:06:26.174Z,45.90
2018-07-11T20:08:55.103Z,46.53
2018-07-11T20:11:25.884Z,46.42
2018-07-11T20:13:54.984Z,46.35
2018-07-11T20:16:24.467Z,46.06
2018-07-11T20:18:53.260Z,45.96
2018-07-11T20:21:22.424Z,45.81
2018-07-11T20:23:51.233Z,46.13
2018-07-11T20:26:20.905Z,46.38
2018-07-11T20:28:49.900Z,46.33
2018-07-11T20:33:46.319Z,44.67
2018-07-11T20:36:20.911Z,45.29
2018-07-11T20:38:49.811Z,45.42
2018-07-11T20:41:18.396Z,45.22
2018-07-11T20:43:47.385Z,45.33
2018-07-11T20:46:16.273Z,44.84
2018-07-11T20:48:45.296Z,45.15
2018-07-11T20:51:15.257Z,45.16
2018-07-11T20:53:44.095Z,45.17
2018-07-11T20:56:12.644Z,44.46
2018-07-11T20:58:52.296Z,44.92
2018-07-11T21:01:32.065Z,44.93
2018-07-11T21:06:16.158Z,44.84
2018-07-11T21:12:08.191Z,45.21
2018-07-11T21:15:20.417Z,45.48
2018-07-11T21:20:11.817Z,46.30
2018-07-11T21:22:40.815Z,45.67
2018-07-11T21:25:09.495Z,45.54
2018-07-11T21:27:38.648Z,45.70
2018-07-11T21:30:07.228Z,45.78
2018-07-11T21:32:35.805Z,47.06
2018-07-11T21:35:04.876Z,46.85
2018-07-11T21:37:36.271Z,46.88
2018-07-11T21:40:06.104Z,46.23
2018-07-11T21:42:35.128Z,46.18
2018-07-11T21:45:07.047Z,46.62
2018-07-11T21:47:35.556Z,46.46
2018-07-11T21:50:06.005Z,47.04
2018-07-11T21:52:34.599Z,46.36
2018-07-11T21:55:03.216Z,46.60
2018-07-11T21:57:32.148Z,46.85
2018-07-11T22:00:00.676Z,46.53
2018-07-11T22:02:29.485Z,47.31
2018-07-11T22:04:58.306Z,46.73
2018-07-11T22:07:26.791Z,47.21
2018-07-11T22:09:57.286Z,48.11
2018-07-11T22:12:26.170Z,50.35
2018-07-11T22:14:56.524Z,51.09
2018-07-11T22:17:34.824Z,52.73
2018-07-11T22:20:03.436Z,53.12
2018-07-11T22:22:30.749Z,54.52
2018-07-11T22:24:58.047Z,55.81
2018-07-11T22:27:25.667Z,56.15
2018-07-11T22:29:52.922Z,56.65
2018-07-11T22:32:20.230Z,57.69
2018-07-11T22:34:48.780Z,57.44
2018-07-11T22:37:16.064Z,57.99
2018-07-11T22:39:43.404Z,58.91
2018-07-11T22:42:12.459Z,59.53
2018-07-11T22:44:39.715Z,59.01
2018-07-11T22:47:07.083Z,59.84
2018-07-11T22:52:13.367Z,59.70
2018-07-11T22:54:40.699Z,59.71
2018-07-11T22:57:08.029Z,59.37
2018-07-11T22:59:35.355Z,59.48
2018-07-11T23:02:09.527Z,59.50
2018-07-11T23:04:36.828Z,58.97
2018-07-11T23:07:04.127Z,58.18
2018-07-11T23:09:35.163Z,59.37
2018-07-11T23:12:03.860Z,58.40
2018-07-11T23:14:31.976Z,59.30
2018-07-11T23:17:01.020Z,57.23
2018-07-11T23:19:28.459Z,57.26
2018-07-11T23:21:55.889Z,57.16
2018-07-11T23:24:24.186Z,57.25
2018-07-11T23:26:51.637Z,56.37
2018-07-11T23:29:18.910Z,56.48
2018-07-11T23:31:47.971Z,55.82
2018-07-11T23:34:15.245Z,55.50
2018-07-11T23:36:42.630Z,55.77
2018-07-11T23:39:11.169Z,56.78
2018-07-11T23:41:38.459Z,56.69
2018-07-11T23:44:05.927Z,56.87
2018-07-11T23:46:33.608Z,57.80
2018-07-11T23:49:00.877Z,58.43
2018-07-11T23:51:32.920Z,58.32
2018-07-11T23:54:00.927Z,58.42
2018-07-11T23:59:02.423Z,58.14
